ロングイェールビーン の空港の天気 - METARとTAF

スヴァールバル空港 ( ENSB / LYR ) - スヴァールバル諸島・ヤンマイエン島 ロングイェールビーン
飛行場実況気象(Metar)
観測時間04/26 07:50 CEST (04/26 05:50 UTC)
風向・風速東南東 5m/s
視程10km以上
天気現象
少しの雲 雲底高度 610m
全天の8割程度の雲 雲底高度 910m
気温-8℃
湿度73%
気圧1015hPa
METARENSB 260550Z 11010KT 9999 FEW020 BKN030 M08/M12 Q1015 NOSIG RMK WIND 1400FT 10004KT
過去の天気等 Google飛行場航空写真 Wunderground天気予報

過去48時間のMETAR

飛行場予報(TAF)
発表時間: -
26日10時 CEST ~ 26日12時 CEST に徐々に
風向・風速西南西 5m/s
26日20時 CEST ~ 27日8時 CEST に一時的に
視程4,000m
天気現象弱いしゅう雪
全天を覆う雲 鉛直視程 370m
TAF ENSB 2606/2706 12008KT 9999 FEW010 BKN020
BECMG 2608/2610 24010KT
TEMPO 2618/2706 4000 -SHSN VV012